createdAt,value
2022-11-28T00:01:34.103Z,60.61
2022-11-28T00:04:01.088Z,60.74
2022-11-28T00:06:28.271Z,62.33
2022-11-28T00:08:58.560Z,63.30
2022-11-28T00:11:25.383Z,62.56
2022-11-28T00:13:51.926Z,63.00
2022-11-28T00:16:22.021Z,62.21
2022-11-28T00:18:50.985Z,61.19
2022-11-28T00:21:17.986Z,61.22
2022-11-28T00:23:46.106Z,60.88
2022-11-28T00:26:23.440Z,59.36
2022-11-28T00:28:50.456Z,59.23
2022-11-28T00:31:22.881Z,59.63
2022-11-28T00:33:49.497Z,58.65
2022-11-28T00:36:16.557Z,58.97
2022-11-28T00:38:43.114Z,59.00
2022-11-28T00:41:11.092Z,57.79
2022-11-28T00:43:37.930Z,57.38
2022-11-28T00:46:04.703Z,57.31
2022-11-28T00:48:35.878Z,58.58
2022-11-28T00:51:13.927Z,57.91
2022-11-28T00:53:42.438Z,57.24
2022-11-28T00:56:11.103Z,57.83
2022-11-28T00:58:38.638Z,57.84
2022-11-28T01:01:14.452Z,56.28
2022-11-28T01:03:41.667Z,56.28
2022-11-28T01:06:09.583Z,56.64
2022-11-28T01:08:36.493Z,57.28
2022-11-28T01:11:03.911Z,55.64
2022-11-28T01:13:30.481Z,55.82
2022-11-28T01:15:58.768Z,55.81
2022-11-28T01:18:25.532Z,56.22
2022-11-28T01:20:52.083Z,57.39
2022-11-28T01:23:19.228Z,56.32
2022-11-28T01:25:45.756Z,55.81
2022-11-28T01:28:12.356Z,56.44
2022-11-28T01:30:39.321Z,57.34
2022-11-28T01:33:05.985Z,57.69
2022-11-28T01:35:32.559Z,59.03
2022-11-28T01:37:59.112Z,59.37
2022-11-28T01:40:25.724Z,59.51
2022-11-28T01:42:52.780Z,57.67
2022-11-28T01:45:33.328Z,56.43
2022-11-28T01:48:03.003Z,56.49
2022-11-28T01:50:31.941Z,56.14
2022-11-28T01:53:02.686Z,55.60
2022-11-28T01:55:35.295Z,54.62
2022-11-28T01:58:01.993Z,55.61
2022-11-28T02:00:28.536Z,56.34
2022-11-28T02:03:09.521Z,57.50
2022-11-28T02:05:36.463Z,57.57
2022-11-28T02:08:03.578Z,59.35
2022-11-28T02:10:57.217Z,59.13
2022-11-28T02:13:44.747Z,57.42
2022-11-28T02:16:19.063Z,57.30
2022-11-28T02:19:29.527Z,57.57
2022-11-28T02:22:14.513Z,56.79
2022-11-28T02:25:05.522Z,55.74
2022-11-28T02:28:00.610Z,56.57
2022-11-28T02:30:43.866Z,57.63
2022-11-28T02:33:33.868Z,56.66
2022-11-28T02:36:13.621Z,56.68
2022-11-28T02:39:07.904Z,55.44
2022-11-28T02:41:59.165Z,55.84
2022-11-28T02:44:40.840Z,57.24
2022-11-28T02:47:55.800Z,57.27
2022-11-28T02:50:28.595Z,57.42
2022-11-28T02:53:03.998Z,58.97
2022-11-28T02:55:31.121Z,58.62
2022-11-28T02:57:58.268Z,58.20
2022-11-28T03:00:35.972Z,59.72
2022-11-28T03:03:02.539Z,58.17
2022-11-28T03:06:01.812Z,58.34
2022-11-28T03:09:06.266Z,59.04
2022-11-28T03:12:07.280Z,58.08
2022-11-28T03:14:52.543Z,57.68
2022-11-28T03:17:31.233Z,57.73
2022-11-28T03:20:11.872Z,57.50
2022-11-28T03:22:46.072Z,56.76
2022-11-28T03:25:38.638Z,58.33
2022-11-28T03:28:19.111Z,58.63
2022-11-28T03:30:50.111Z,57.76
2022-11-28T03:33:21.146Z,57.92
2022-11-28T03:35:54.318Z,57.93
2022-11-28T03:38:28.376Z,57.22
2022-11-28T03:41:01.499Z,57.33
2022-11-28T03:43:34.808Z,58.15
2022-11-28T03:46:07.327Z,57.54
2022-11-28T03:48:38.772Z,57.46
2022-11-28T03:51:29.120Z,56.92
2022-11-28T03:54:16.040Z,57.10
2022-11-28T03:56:55.340Z,57.27
2022-11-28T03:59:33.049Z,57.21
2022-11-28T04:02:16.107Z,57.31
2022-11-28T04:05:03.485Z,57.73
2022-11-28T04:10:41.190Z,57.90
2022-11-28T04:13:20.914Z,57.74
2022-11-28T04:16:04.096Z,57.50
2022-11-28T04:19:02.777Z,57.61
2022-11-28T04:21:39.965Z,57.92
2022-11-28T04:24:15.794Z,57.81
2022-11-28T04:26:47.667Z,57.21
2022-11-28T04:29:18.229Z,57.16
2022-11-28T04:31:48.713Z,57.02
2022-11-28T04:34:20.165Z,56.48
2022-11-28T04:36:49.204Z,57.05
2022-11-28T04:39:19.120Z,55.93
2022-11-28T04:41:53.025Z,55.76
2022-11-28T04:44:47.193Z,55.60
2022-11-28T04:47:14.167Z,55.50
2022-11-28T04:49:40.852Z,55.68
2022-11-28T04:53:21.618Z,55.15
2022-11-28T04:55:55.135Z,56.08
2022-11-28T04:58:35.698Z,55.88
2022-11-28T05:01:06.994Z,55.70
2022-11-28T05:03:38.740Z,56.34
2022-11-28T05:06:08.896Z,57.66
2022-11-28T05:08:35.967Z,56.85
2022-11-28T05:11:02.547Z,56.82
2022-11-28T05:13:29.155Z,57.32
2022-11-28T05:15:55.787Z,56.92
2022-11-28T05:18:22.402Z,56.66
2022-11-28T05:20:49.224Z,56.38
2022-11-28T05:23:15.745Z,56.75
2022-11-28T05:25:42.312Z,57.18
2022-11-28T05:28:08.949Z,56.08
2022-11-28T05:30:35.472Z,55.76
2022-11-28T05:33:02.695Z,55.77
2022-11-28T05:35:29.764Z,56.37
2022-11-28T05:37:56.285Z,56.07
2022-11-28T05:40:23.299Z,56.07
2022-11-28T05:42:49.993Z,55.57
2022-11-28T05:45:16.560Z,55.71
2022-11-28T05:47:43.140Z,55.20
2022-11-28T05:50:10.127Z,54.97
2022-11-28T05:52:36.694Z,54.58
2022-11-28T05:55:03.855Z,54.04
2022-11-28T05:57:32.077Z,53.58
2022-11-28T05:59:58.940Z,54.53
2022-11-28T06:02:25.760Z,54.18
2022-11-28T06:04:52.356Z,54.02
2022-11-28T06:07:19.792Z,54.32
2022-11-28T06:09:46.540Z,54.34
2022-11-28T06:12:13.369Z,53.76
2022-11-28T06:14:40.236Z,53.03
2022-11-28T06:17:07.348Z,52.65
2022-11-28T06:19:33.945Z,52.60
2022-11-28T06:22:00.620Z,53.79
2022-11-28T06:24:27.281Z,54.44
2022-11-28T06:26:55.179Z,54.22
2022-11-28T06:29:22.147Z,54.14
2022-11-28T06:31:48.737Z,53.68
2022-11-28T06:34:15.318Z,54.11
2022-11-28T06:36:42.892Z,53.82
2022-11-28T06:39:13.289Z,53.82
2022-11-28T06:41:40.188Z,54.62
2022-11-28T06:44:07.016Z,54.46
2022-11-28T06:46:33.685Z,54.66
2022-11-28T06:49:00.324Z,54.78
2022-11-28T06:51:27.167Z,54.78
2022-11-28T06:53:54.089Z,54.86
2022-11-28T06:56:20.683Z,56.05
2022-11-28T06:58:53.099Z,56.44
2022-11-28T07:01:21.585Z,54.83
2022-11-28T07:03:49.015Z,55.40
2022-11-28T07:06:18.418Z,56.46
2022-11-28T07:08:45.300Z,57.12
2022-11-28T07:11:20.809Z,56.93
2022-11-28T07:13:48.842Z,56.45
2022-11-28T07:16:21.520Z,54.95
2022-11-28T07:18:48.695Z,55.77
2022-11-28T07:21:16.276Z,55.58
2022-11-28T07:23:44.034Z,55.96
2022-11-28T07:26:13.020Z,56.32
2022-11-28T07:28:40.078Z,56.43
2022-11-28T07:31:15.817Z,56.44
2022-11-28T07:33:44.308Z,56.93
2022-11-28T07:36:16.569Z,57.42
2022-11-28T07:38:45.886Z,56.16
2022-11-28T07:41:14.198Z,55.54
2022-11-28T07:43:42.980Z,55.67
2022-11-28T07:46:13.239Z,56.43
2022-11-28T07:48:39.896Z,56.03
2022-11-28T07:51:12.628Z,55.63
2022-11-28T07:53:39.816Z,55.17
2022-11-28T07:56:09.970Z,54.65
2022-11-28T07:58:36.938Z,54.70
2022-11-28T08:01:15.443Z,54.81
2022-11-28T08:03:44.592Z,56.65
2022-11-28T08:06:11.604Z,56.52
2022-11-28T08:08:38.231Z,55.67
2022-11-28T08:11:08.241Z,55.40
2022-11-28T08:13:36.451Z,56.26
2022-11-28T08:16:09.199Z,55.57
2022-11-28T08:18:36.768Z,55.63
2022-11-28T08:21:24.965Z,55.06
2022-11-28T08:23:52.897Z,56.07
2022-11-28T08:26:25.976Z,55.83
2022-11-28T08:28:55.916Z,54.45
2022-11-28T08:31:28.382Z,55.18
2022-11-28T08:33:56.757Z,55.97
2022-11-28T08:36:24.641Z,57.16
2022-11-28T08:39:09.502Z,56.38
2022-11-28T08:41:38.576Z,56.13
2022-11-28T08:44:05.194Z,57.54
2022-11-28T08:46:32.542Z,58.21
2022-11-28T08:49:04.223Z,57.19
2022-11-28T08:51:31.293Z,58.08
2022-11-28T08:54:00.078Z,59.11
2022-11-28T08:56:27.563Z,58.17
2022-11-28T08:58:55.066Z,57.82
2022-11-28T09:01:24.803Z,58.04
2022-11-28T09:03:52.740Z,58.26
2022-11-28T09:06:20.901Z,57.16
2022-11-28T09:08:48.534Z,58.42
2022-11-28T09:11:17.919Z,58.54
2022-11-28T09:13:45.534Z,58.48
2022-11-28T09:16:13.076Z,58.21
2022-11-28T09:18:39.854Z,57.79
2022-11-28T09:21:11.555Z,57.94
2022-11-28T09:23:40.806Z,57.88
2022-11-28T09:26:12.167Z,58.62
2022-11-28T09:28:39.321Z,58.27
2022-11-28T09:31:07.605Z,58.51
2022-11-28T09:33:35.605Z,58.83
2022-11-28T09:36:13.750Z,58.83
2022-11-28T09:38:40.876Z,59.33
2022-11-28T09:41:32.421Z,59.40
2022-11-28T09:44:06.798Z,59.39
2022-11-28T09:46:37.316Z,59.44
2022-11-28T09:49:28.481Z,58.49
2022-11-28T09:52:02.577Z,59.45
2022-11-28T09:54:36.336Z,57.72
2022-11-28T09:57:08.811Z,58.37
2022-11-28T09:59:35.652Z,58.95
2022-11-28T10:02:27.461Z,58.60
2022-11-28T10:05:09.156Z,58.86
2022-11-28T10:07:38.828Z,58.50
2022-11-28T10:10:21.590Z,59.47
2022-11-28T10:13:09.391Z,58.74
2022-11-28T10:15:44.517Z,59.08
2022-11-28T10:18:23.230Z,59.01
2022-11-28T10:20:54.909Z,59.46
2022-11-28T10:23:43.315Z,59.19
2022-11-28T10:26:27.242Z,60.39
2022-11-28T10:28:57.719Z,59.52
2022-11-28T10:31:36.576Z,59.09
2022-11-28T10:34:18.691Z,59.02
2022-11-28T10:37:00.784Z,59.39
2022-11-28T10:39:27.784Z,59.15
2022-11-28T10:42:11.593Z,59.32
2022-11-28T10:45:18.396Z,58.90
2022-11-28T10:47:59.167Z,58.35
2022-11-28T10:50:38.931Z,59.03
2022-11-28T10:53:23.784Z,59.27
2022-11-28T10:56:04.339Z,58.79
2022-11-28T10:58:46.730Z,59.57
2022-11-28T11:01:13.508Z,58.79
2022-11-28T11:03:41.429Z,58.86
2022-11-28T11:06:09.411Z,59.52
2022-11-28T11:08:38.590Z,59.15
2022-11-28T11:11:07.185Z,60.74
2022-11-28T11:13:36.363Z,60.04
2022-11-28T11:16:09.643Z,59.36
2022-11-28T11:18:46.574Z,58.83
2022-11-28T11:21:19.719Z,59.03
2022-11-28T11:23:47.842Z,59.68
2022-11-28T11:26:27.757Z,58.55
2022-11-28T11:28:56.127Z,58.84
2022-11-28T11:31:30.945Z,58.83
2022-11-28T11:34:04.091Z,58.81
2022-11-28T11:36:34.220Z,58.26
2022-11-28T11:39:10.485Z,59.27
2022-11-28T11:41:58.169Z,58.82
2022-11-28T11:44:29.381Z,58.14
2022-11-28T11:47:16.472Z,58.61
2022-11-28T11:49:50.482Z,59.59
2022-11-28T11:52:25.668Z,59.25
2022-11-28T11:55:13.738Z,59.02
2022-11-28T11:57:52.641Z,57.66
2022-11-28T12:00:30.245Z,58.35
2022-11-28T12:03:06.613Z,58.56
2022-11-28T12:06:13.253Z,58.07
2022-11-28T12:08:54.299Z,58.19
2022-11-28T12:11:31.914Z,58.05
2022-11-28T12:14:05.025Z,58.49
2022-11-28T12:16:55.374Z,59.50
2022-11-28T12:19:37.117Z,59.28
2022-11-28T12:22:21.793Z,59.71
2022-11-28T12:25:03.134Z,59.42
2022-11-28T12:27:33.187Z,58.61
2022-11-28T12:30:34.116Z,57.78
2022-11-28T12:33:15.668Z,57.37
2022-11-28T12:35:49.825Z,58.94
2022-11-28T12:38:31.328Z,57.57
2022-11-28T12:41:16.641Z,57.96
2022-11-28T12:43:57.978Z,57.98
2022-11-28T12:46:27.451Z,57.99
2022-11-28T12:49:14.814Z,57.93
2022-11-28T12:51:53.393Z,58.78
2022-11-28T12:54:42.191Z,59.54
2022-11-28T12:57:22.773Z,58.72
2022-11-28T13:00:08.133Z,59.45
2022-11-28T13:02:57.124Z,59.46
2022-11-28T13:05:46.242Z,59.50
2022-11-28T13:08:47.983Z,58.82
2022-11-28T13:11:32.461Z,60.81
2022-11-28T13:14:10.516Z,60.34
2022-11-28T13:16:46.475Z,60.18
2022-11-28T13:19:31.916Z,59.54
2022-11-28T13:22:04.484Z,60.70
2022-11-28T13:24:42.234Z,60.83
2022-11-28T13:28:03.044Z,59.67
2022-11-28T13:30:40.848Z,59.01
2022-11-28T13:33:28.228Z,59.14
2022-11-28T13:35:56.814Z,58.51
2022-11-28T13:38:51.928Z,59.74
2022-11-28T13:42:14.003Z,59.69
2022-11-28T13:44:42.185Z,58.29
2022-11-28T13:47:21.447Z,59.00
2022-11-28T13:49:48.060Z,58.77
2022-11-28T13:52:17.819Z,58.15
2022-11-28T13:54:54.689Z,57.92
2022-11-28T13:57:28.496Z,58.51
2022-11-28T14:00:22.530Z,57.94
2022-11-28T14:02:54.031Z,57.64
2022-11-28T14:05:37.142Z,57.11
2022-11-28T14:08:05.902Z,56.40
2022-11-28T14:11:03.101Z,56.37
2022-11-28T14:13:50.621Z,57.20
2022-11-28T14:16:35.739Z,57.41
2022-11-28T14:19:26.472Z,56.06
2022-11-28T14:22:02.273Z,56.20
2022-11-28T14:24:53.825Z,56.60
2022-11-28T14:27:28.036Z,58.23
2022-11-28T14:29:57.229Z,57.97
2022-11-28T14:32:39.757Z,57.21
2022-11-28T14:35:17.683Z,57.53
2022-11-28T14:37:52.850Z,57.37
2022-11-28T14:40:57.267Z,57.40
2022-11-28T14:43:24.044Z,56.68
2022-11-28T14:45:52.593Z,57.42
2022-11-28T14:48:31.675Z,57.35
2022-11-28T14:51:01.708Z,56.83
2022-11-28T14:53:36.336Z,57.42
2022-11-28T14:56:11.381Z,57.13
2022-11-28T14:58:38.663Z,58.03
2022-11-28T15:01:14.248Z,57.47
2022-11-28T15:03:44.016Z,57.67
2022-11-28T15:06:30.937Z,57.36
2022-11-28T15:09:16.749Z,56.24
2022-11-28T15:12:19.266Z,56.25
2022-11-28T15:14:53.895Z,56.21
2022-11-28T15:17:28.309Z,56.65
2022-11-28T15:19:58.324Z,56.57
2022-11-28T15:22:40.901Z,55.98
2022-11-28T15:25:29.478Z,55.94
2022-11-28T15:28:13.439Z,55.39
2022-11-28T15:30:45.451Z,55.62
2022-11-28T15:33:12.965Z,54.98
2022-11-28T15:35:51.140Z,54.75
2022-11-28T15:38:18.191Z,55.40
2022-11-28T15:40:51.459Z,55.04
2022-11-28T15:43:18.872Z,54.92
2022-11-28T15:45:50.526Z,54.76
2022-11-28T15:48:27.064Z,54.97
2022-11-28T15:50:54.061Z,54.84
2022-11-28T15:53:21.630Z,55.50
2022-11-28T15:56:07.173Z,54.95
2022-11-28T15:58:34.088Z,55.44
2022-11-28T16:01:16.145Z,55.94
2022-11-28T16:03:55.678Z,56.00
2022-11-28T16:06:26.197Z,55.50
2022-11-28T16:08:55.744Z,55.33
2022-11-28T16:11:26.688Z,55.81
2022-11-28T16:13:57.363Z,55.80
2022-11-28T16:16:32.158Z,55.91
2022-11-28T16:19:01.788Z,56.21
2022-11-28T16:21:32.316Z,56.07
2022-11-28T16:24:01.040Z,55.82
2022-11-28T16:26:34.377Z,55.79
2022-11-28T16:29:06.096Z,55.20
2022-11-28T16:31:34.341Z,55.18
2022-11-28T16:34:02.659Z,55.67
2022-11-28T16:36:37.373Z,55.37
2022-11-28T16:39:04.378Z,54.82
2022-11-28T16:41:32.657Z,56.41
2022-11-28T16:44:02.425Z,56.79
2022-11-28T16:46:34.752Z,56.01
2022-11-28T16:49:02.600Z,56.36
2022-11-28T16:51:32.704Z,56.56
2022-11-28T16:54:20.404Z,56.54
2022-11-28T16:56:47.379Z,57.28
2022-11-28T16:59:18.859Z,56.94
2022-11-28T17:01:48.442Z,56.65
2022-11-28T17:04:26.585Z,55.81
2022-11-28T17:06:56.280Z,56.13
2022-11-28T17:09:23.300Z,56.42
2022-11-28T17:11:58.234Z,58.16
2022-11-28T17:14:25.359Z,57.04
2022-11-28T17:16:51.943Z,57.58
2022-11-28T17:19:18.684Z,57.70
2022-11-28T17:21:49.085Z,57.21
2022-11-28T17:24:28.997Z,56.14
2022-11-28T17:26:55.866Z,56.13
2022-11-28T17:29:22.897Z,56.36
2022-11-28T17:31:50.435Z,56.11
2022-11-28T17:34:20.963Z,55.88
2022-11-28T17:36:47.920Z,55.74
2022-11-28T17:39:15.777Z,56.04
2022-11-28T17:41:43.158Z,56.27
2022-11-28T17:44:19.696Z,55.51
2022-11-28T17:46:48.851Z,56.00
2022-11-28T17:49:18.162Z,56.80
2022-11-28T17:51:45.576Z,56.47
2022-11-28T17:54:16.228Z,56.12
2022-11-28T17:56:47.305Z,56.61
2022-11-28T17:59:16.207Z,55.80
2022-11-28T18:01:44.405Z,55.72
2022-11-28T18:04:11.689Z,56.48
2022-11-28T18:06:43.357Z,56.56
2022-11-28T18:09:12.339Z,56.66
2022-11-28T18:11:43.463Z,55.73
2022-11-28T18:14:10.702Z,55.99
2022-11-28T18:16:39.553Z,56.06
2022-11-28T18:19:08.241Z,55.73
2022-11-28T18:21:35.458Z,56.38
2022-11-28T18:24:02.162Z,56.55
2022-11-28T18:26:29.742Z,56.91
2022-11-28T18:28:58.346Z,55.82
2022-11-28T18:31:28.568Z,56.04
2022-11-28T18:34:01.503Z,55.72
2022-11-28T18:36:33.090Z,56.28
2022-11-28T18:39:06.268Z,55.99
2022-11-28T18:41:33.311Z,54.99
2022-11-28T18:44:02.145Z,55.49
2022-11-28T18:46:29.981Z,55.86
2022-11-28T18:48:58.360Z,54.99
2022-11-28T18:51:32.993Z,54.40
2022-11-28T18:54:04.110Z,55.43
2022-11-28T18:56:32.356Z,55.87
2022-11-28T18:58:59.203Z,55.49
2022-11-28T19:01:30.766Z,55.34
2022-11-28T19:04:09.762Z,54.83
2022-11-28T19:06:38.622Z,54.67
2022-11-28T19:09:09.821Z,54.96
2022-11-28T19:11:37.324Z,55.74
2022-11-28T19:14:04.624Z,56.25
2022-11-28T19:16:34.962Z,55.47
2022-11-28T19:19:03.182Z,55.77
2022-11-28T19:21:33.315Z,55.53
2022-11-28T19:24:02.290Z,55.60
2022-11-28T19:26:31.488Z,55.79
2022-11-28T19:29:00.702Z,55.81
2022-11-28T19:31:31.022Z,55.17
2022-11-28T19:34:02.859Z,55.05
2022-11-28T19:36:38.160Z,55.30
2022-11-28T19:39:05.481Z,55.57
2022-11-28T19:41:32.863Z,55.12
2022-11-28T19:44:00.380Z,56.25
2022-11-28T19:46:34.973Z,56.16
2022-11-28T19:49:06.324Z,55.76
2022-11-28T19:51:34.762Z,55.53
2022-11-28T19:54:03.961Z,55.77
2022-11-28T19:56:33.515Z,55.24
2022-11-28T19:59:00.423Z,55.27
2022-11-28T20:01:28.406Z,54.95
2022-11-28T20:03:56.961Z,54.75
2022-11-28T20:06:27.237Z,54.41
2022-11-28T20:08:57.593Z,54.28
2022-11-28T20:11:30.663Z,53.93
2022-11-28T20:14:07.489Z,54.57
2022-11-28T20:16:36.729Z,54.13
2022-11-28T20:19:05.478Z,53.82
2022-11-28T20:21:34.226Z,53.96
2022-11-28T20:24:05.122Z,54.31
2022-11-28T20:26:37.652Z,53.84
2022-11-28T20:29:05.873Z,54.08
2022-11-28T20:31:41.928Z,54.15
2022-11-28T20:34:08.947Z,54.58
2022-11-28T20:36:36.325Z,54.61
2022-11-28T20:39:04.719Z,55.54
2022-11-28T20:41:31.756Z,55.82
2022-11-28T20:44:00.817Z,56.51
2022-11-28T20:46:30.311Z,55.82
2022-11-28T20:49:00.164Z,55.67
2022-11-28T20:51:29.873Z,55.98
2022-11-28T20:53:58.304Z,55.56
2022-11-28T20:56:41.817Z,55.72
2022-11-28T20:59:19.028Z,55.94
2022-11-28T21:01:45.644Z,55.68
2022-11-28T21:04:15.757Z,55.98
2022-11-28T21:06:43.821Z,56.10
2022-11-28T21:09:12.486Z,54.85
2022-11-28T21:14:27.407Z,54.15
2022-11-28T21:16:54.538Z,54.68
2022-11-28T21:19:21.151Z,55.05
2022-11-28T21:21:48.130Z,55.20
2022-11-28T21:24:14.739Z,54.92
2022-11-28T21:26:45.270Z,54.77
2022-11-28T21:29:14.935Z,54.83
2022-11-28T21:31:43.439Z,55.30
2022-11-28T21:34:14.802Z,55.22
2022-11-28T21:36:42.422Z,54.87
2022-11-28T21:39:14.164Z,54.62
2022-11-28T21:41:40.739Z,54.50
2022-11-28T21:44:07.948Z,55.01
2022-11-28T21:46:34.585Z,54.65
2022-11-28T21:49:01.753Z,54.61
2022-11-28T21:51:28.657Z,54.03
2022-11-28T21:53:59.059Z,55.02
2022-11-28T21:56:26.147Z,54.95
2022-11-28T21:58:53.717Z,54.75
2022-11-28T22:01:21.274Z,54.76
2022-11-28T22:03:48.566Z,54.93
2022-11-28T22:06:21.523Z,55.42
2022-11-28T22:08:49.297Z,55.37
2022-11-28T22:20:17.151Z,54.19
2022-11-28T22:23:31.544Z,54.35
2022-11-28T22:29:09.611Z,54.59
2022-11-28T22:31:36.644Z,54.65
2022-11-28T22:34:03.547Z,54.87
2022-11-28T22:36:32.013Z,55.14
2022-11-28T22:38:59.100Z,55.17
2022-11-28T22:41:29.334Z,55.23
2022-11-28T22:44:00.373Z,55.23
2022-11-28T22:46:28.354Z,54.91
2022-11-28T22:48:55.277Z,54.87
2022-11-28T22:51:25.962Z,54.62
2022-11-28T22:53:55.317Z,54.50
2022-11-28T22:56:24.712Z,54.68
2022-11-28T22:58:51.623Z,53.88
2022-11-28T23:01:21.924Z,54.17
2022-11-28T23:03:48.974Z,53.57
2022-11-28T23:06:23.525Z,53.66
2022-11-28T23:08:54.101Z,52.77
2022-11-28T23:11:24.017Z,53.04
2022-11-28T23:13:51.531Z,52.88
2022-11-28T23:16:27.272Z,52.36
2022-11-28T23:18:57.950Z,52.33
2022-11-28T23:21:25.401Z,53.06
2022-11-28T23:23:52.456Z,52.96
2022-11-28T23:26:22.238Z,52.68
2022-11-28T23:28:50.539Z,52.81
2022-11-28T23:31:19.387Z,52.90
2022-11-28T23:33:46.637Z,52.42
2022-11-28T23:36:21.371Z,52.57
2022-11-28T23:38:50.282Z,52.24
2022-11-28T23:41:16.908Z,52.77
2022-11-28T23:43:44.506Z,53.02
2022-11-28T23:46:13.320Z,53.09
2022-11-28T23:48:40.417Z,53.24
2022-11-28T23:51:07.607Z,53.32
2022-11-28T23:53:35.420Z,52.89
2022-11-28T23:56:06.674Z,53.47
2022-11-28T23:58:36.897Z,53.17
